sensor_id;sensor_type;location;lat;lon;timestamp;P1;durP1;ratioP1;P2;durP2;ratioP2
22363;SDS011;11349;53.412;-1.328;2022-12-05T00:01:32;16.33;;;8.55;;
22363;SDS011;11349;53.412;-1.328;2022-12-05T00:04:07;14.85;;;8.80;;
22363;SDS011;11349;53.412;-1.328;2022-12-05T00:06:35;17.33;;;9.55;;
22363;SDS011;11349;53.412;-1.328;2022-12-05T00:09:03;17.20;;;8.73;;
22363;SDS011;11349;53.412;-1.328;2022-12-05T00:11:31;19.70;;;9.50;;
22363;SDS011;11349;53.412;-1.328;2022-12-05T00:13:59;19.13;;;11.27;;
22363;SDS011;11349;53.412;-1.328;2022-12-05T00:16:29;19.73;;;9.85;;
22363;SDS011;11349;53.412;-1.328;2022-12-05T00:18:57;18.35;;;9.95;;
22363;SDS011;11349;53.412;-1.328;2022-12-05T00:21:25;17.67;;;9.98;;
22363;SDS011;11349;53.412;-1.328;2022-12-05T00:23:53;19.70;;;10.07;;
22363;SDS011;11349;53.412;-1.328;2022-12-05T00:26:20;19.80;;;10.43;;
22363;SDS011;11349;53.412;-1.328;2022-12-05T00:28:46;18.40;;;9.60;;
22363;SDS011;11349;53.412;-1.328;2022-12-05T00:31:13;18.35;;;8.77;;
22363;SDS011;11349;53.412;-1.328;2022-12-05T00:33:41;23.20;;;10.70;;
22363;SDS011;11349;53.412;-1.328;2022-12-05T00:36:09;17.45;;;10.10;;
22363;SDS011;11349;53.412;-1.328;2022-12-05T00:38:45;20.17;;;9.98;;
22363;SDS011;11349;53.412;-1.328;2022-12-05T00:41:12;17.83;;;10.35;;
22363;SDS011;11349;53.412;-1.328;2022-12-05T00:43:39;18.83;;;8.85;;
22363;SDS011;11349;53.412;-1.328;2022-12-05T00:46:10;16.58;;;9.55;;
22363;SDS011;11349;53.412;-1.328;2022-12-05T00:48:38;22.63;;;10.10;;
22363;SDS011;11349;53.412;-1.328;2022-12-05T00:51:14;17.25;;;9.27;;
22363;SDS011;11349;53.412;-1.328;2022-12-05T00:53:42;18.25;;;9.00;;
22363;SDS011;11349;53.412;-1.328;2022-12-05T00:56:11;20.23;;;9.20;;
22363;SDS011;11349;53.412;-1.328;2022-12-05T00:58:41;19.70;;;9.63;;
22363;SDS011;11349;53.412;-1.328;2022-12-05T01:01:08;20.10;;;10.32;;
22363;SDS011;11349;53.412;-1.328;2022-12-05T01:03:48;19.10;;;9.80;;
22363;SDS011;11349;53.412;-1.328;2022-12-05T01:06:16;17.48;;;9.13;;
22363;SDS011;11349;53.412;-1.328;2022-12-05T01:08:42;23.15;;;9.50;;
22363;SDS011;11349;53.412;-1.328;2022-12-05T01:11:09;20.38;;;9.52;;
22363;SDS011;11349;53.412;-1.328;2022-12-05T01:13:35;25.95;;;9.85;;
22363;SDS011;11349;53.412;-1.328;2022-12-05T01:16:02;19.35;;;8.90;;
22363;SDS011;11349;53.412;-1.328;2022-12-05T01:18:28;19.00;;;8.98;;
22363;SDS011;11349;53.412;-1.328;2022-12-05T01:20:54;18.27;;;9.25;;
22363;SDS011;11349;53.412;-1.328;2022-12-05T01:23:20;17.42;;;9.55;;
22363;SDS011;11349;53.412;-1.328;2022-12-05T01:25:48;19.15;;;8.77;;
22363;SDS011;11349;53.412;-1.328;2022-12-05T01:28:16;18.63;;;9.50;;
22363;SDS011;11349;53.412;-1.328;2022-12-05T01:30:43;15.45;;;7.78;;
22363;SDS011;11349;53.412;-1.328;2022-12-05T01:33:10;16.25;;;8.45;;
22363;SDS011;11349;53.412;-1.328;2022-12-05T01:35:39;13.38;;;7.53;;
22363;SDS011;11349;53.412;-1.328;2022-12-05T01:38:06;14.95;;;7.57;;
22363;SDS011;11349;53.412;-1.328;2022-12-05T01:40:33;21.45;;;8.07;;
22363;SDS011;11349;53.412;-1.328;2022-12-05T01:43:02;14.95;;;7.80;;
22363;SDS011;11349;53.412;-1.328;2022-12-05T01:45:36;17.75;;;8.73;;
22363;SDS011;11349;53.412;-1.328;2022-12-05T01:48:08;13.98;;;7.00;;
22363;SDS011;11349;53.412;-1.328;2022-12-05T01:50:39;20.17;;;7.60;;
22363;SDS011;11349;53.412;-1.328;2022-12-05T01:53:06;15.50;;;6.72;;
22363;SDS011;11349;53.412;-1.328;2022-12-05T01:55:32;16.40;;;6.63;;
22363;SDS011;11349;53.412;-1.328;2022-12-05T01:57:59;16.33;;;6.93;;
22363;SDS011;11349;53.412;-1.328;2022-12-05T02:00:27;12.63;;;6.10;;
22363;SDS011;11349;53.412;-1.328;2022-12-05T02:02:54;16.73;;;6.22;;
22363;SDS011;11349;53.412;-1.328;2022-12-05T02:07:56;14.30;;;5.40;;
22363;SDS011;11349;53.412;-1.328;2022-12-05T02:10:24;11.10;;;5.50;;
22363;SDS011;11349;53.412;-1.328;2022-12-05T02:12:51;16.65;;;5.90;;
22363;SDS011;11349;53.412;-1.328;2022-12-05T02:28:47;12.02;;;6.03;;
22363;SDS011;11349;53.412;-1.328;2022-12-05T02:31:40;11.90;;;5.90;;
22363;SDS011;11349;53.412;-1.328;2022-12-05T02:37:01;10.95;;;5.20;;
22363;SDS011;11349;53.412;-1.328;2022-12-05T02:44:54;14.10;;;6.35;;
22363;SDS011;11349;53.412;-1.328;2022-12-05T02:47:21;16.95;;;5.95;;
22363;SDS011;11349;53.412;-1.328;2022-12-05T02:49:51;13.40;;;5.45;;
22363;SDS011;11349;53.412;-1.328;2022-12-05T02:52:18;14.93;;;6.10;;
22363;SDS011;11349;53.412;-1.328;2022-12-05T02:54:49;16.58;;;5.50;;
22363;SDS011;11349;53.412;-1.328;2022-12-05T02:57:17;14.30;;;5.80;;
22363;SDS011;11349;53.412;-1.328;2022-12-05T02:59:45;11.68;;;5.57;;
22363;SDS011;11349;53.412;-1.328;2022-12-05T03:02:21;10.57;;;5.80;;
22363;SDS011;11349;53.412;-1.328;2022-12-05T03:04:53;12.07;;;5.65;;
22363;SDS011;11349;53.412;-1.328;2022-12-05T03:07:21;11.63;;;4.90;;
22363;SDS011;11349;53.412;-1.328;2022-12-05T03:09:55;16.23;;;5.70;;
22363;SDS011;11349;53.412;-1.328;2022-12-05T03:12:30;14.40;;;5.25;;
22363;SDS011;11349;53.412;-1.328;2022-12-05T03:17:29;12.50;;;5.70;;
22363;SDS011;11349;53.412;-1.328;2022-12-05T03:20:28;12.27;;;5.38;;
22363;SDS011;11349;53.412;-1.328;2022-12-05T03:23:02;15.02;;;5.15;;
22363;SDS011;11349;53.412;-1.328;2022-12-05T03:25:42;10.00;;;4.78;;
22363;SDS011;11349;53.412;-1.328;2022-12-05T03:28:51;10.23;;;4.47;;
22363;SDS011;11349;53.412;-1.328;2022-12-05T03:31:56;12.82;;;4.63;;
22363;SDS011;11349;53.412;-1.328;2022-12-05T03:34:48;9.98;;;4.50;;
22363;SDS011;11349;53.412;-1.328;2022-12-05T03:45:44;13.93;;;4.30;;
22363;SDS011;11349;53.412;-1.328;2022-12-05T03:48:30;12.57;;;3.65;;
22363;SDS011;11349;53.412;-1.328;2022-12-05T03:51:03;9.38;;;3.95;;
22363;SDS011;11349;53.412;-1.328;2022-12-05T03:53:37;9.70;;;3.50;;
22363;SDS011;11349;53.412;-1.328;2022-12-05T03:56:12;9.25;;;3.70;;
22363;SDS011;11349;53.412;-1.328;2022-12-05T04:01:18;8.27;;;4.10;;
22363;SDS011;11349;53.412;-1.328;2022-12-05T04:03:48;9.18;;;3.75;;
22363;SDS011;11349;53.412;-1.328;2022-12-05T04:06:20;9.32;;;3.47;;
22363;SDS011;11349;53.412;-1.328;2022-12-05T04:09:06;9.10;;;3.55;;
22363;SDS011;11349;53.412;-1.328;2022-12-05T04:11:44;6.75;;;3.35;;
22363;SDS011;11349;53.412;-1.328;2022-12-05T04:14:15;8.68;;;3.25;;
22363;SDS011;11349;53.412;-1.328;2022-12-05T04:16:52;6.88;;;3.25;;
22363;SDS011;11349;53.412;-1.328;2022-12-05T04:19:42;7.75;;;3.25;;
22363;SDS011;11349;53.412;-1.328;2022-12-05T04:22:35;14.48;;;3.45;;
22363;SDS011;11349;53.412;-1.328;2022-12-05T04:25:02;8.88;;;4.43;;
22363;SDS011;11349;53.412;-1.328;2022-12-05T04:30:27;8.05;;;3.08;;
22363;SDS011;11349;53.412;-1.328;2022-12-05T04:35:52;9.30;;;2.90;;
22363;SDS011;11349;53.412;-1.328;2022-12-05T04:38:34;9.15;;;3.15;;
22363;SDS011;11349;53.412;-1.328;2022-12-05T04:41:15;10.93;;;3.40;;
22363;SDS011;11349;53.412;-1.328;2022-12-05T04:43:45;9.13;;;3.33;;
22363;SDS011;11349;53.412;-1.328;2022-12-05T04:46:13;8.93;;;3.20;;
22363;SDS011;11349;53.412;-1.328;2022-12-05T04:48:43;6.78;;;3.17;;
22363;SDS011;11349;53.412;-1.328;2022-12-05T04:51:14;11.90;;;4.00;;
22363;SDS011;11349;53.412;-1.328;2022-12-05T04:53:43;8.05;;;3.15;;
22363;SDS011;11349;53.412;-1.328;2022-12-05T04:56:10;12.38;;;3.58;;
22363;SDS011;11349;53.412;-1.328;2022-12-05T04:58:41;13.65;;;3.45;;
22363;SDS011;11349;53.412;-1.328;2022-12-05T05:03:55;8.95;;;2.47;;
22363;SDS011;11349;53.412;-1.328;2022-12-05T05:06:26;7.70;;;2.78;;
22363;SDS011;11349;53.412;-1.328;2022-12-05T05:08:53;6.75;;;3.40;;
22363;SDS011;11349;53.412;-1.328;2022-12-05T05:11:27;8.52;;;3.45;;
22363;SDS011;11349;53.412;-1.328;2022-12-05T05:13:56;9.45;;;3.28;;
22363;SDS011;11349;53.412;-1.328;2022-12-05T05:16:25;8.02;;;2.63;;
22363;SDS011;11349;53.412;-1.328;2022-12-05T05:18:56;9.50;;;3.28;;
22363;SDS011;11349;53.412;-1.328;2022-12-05T05:21:23;10.75;;;2.72;;
22363;SDS011;11349;53.412;-1.328;2022-12-05T05:23:50;6.80;;;2.83;;
22363;SDS011;11349;53.412;-1.328;2022-12-05T05:26:16;5.22;;;2.80;;
22363;SDS011;11349;53.412;-1.328;2022-12-05T05:28:43;10.15;;;2.67;;
22363;SDS011;11349;53.412;-1.328;2022-12-05T05:31:09;7.10;;;3.25;;
22363;SDS011;11349;53.412;-1.328;2022-12-05T05:33:38;10.02;;;2.95;;
22363;SDS011;11349;53.412;-1.328;2022-12-05T05:36:11;7.85;;;2.60;;
22363;SDS011;11349;53.412;-1.328;2022-12-05T05:38:45;8.18;;;3.13;;
22363;SDS011;11349;53.412;-1.328;2022-12-05T05:41:16;13.10;;;3.60;;
22363;SDS011;11349;53.412;-1.328;2022-12-05T05:43:47;8.73;;;2.70;;
22363;SDS011;11349;53.412;-1.328;2022-12-05T05:46:14;9.38;;;2.90;;
22363;SDS011;11349;53.412;-1.328;2022-12-05T05:48:41;5.20;;;2.15;;
22363;SDS011;11349;53.412;-1.328;2022-12-05T05:51:07;7.63;;;2.53;;
22363;SDS011;11349;53.412;-1.328;2022-12-05T05:53:34;8.50;;;2.10;;
22363;SDS011;11349;53.412;-1.328;2022-12-05T05:56:01;10.10;;;3.60;;
22363;SDS011;11349;53.412;-1.328;2022-12-05T05:58:31;14.35;;;2.60;;
22363;SDS011;11349;53.412;-1.328;2022-12-05T06:03:29;12.57;;;2.88;;
22363;SDS011;11349;53.412;-1.328;2022-12-05T06:05:58;10.55;;;2.40;;
22363;SDS011;11349;53.412;-1.328;2022-12-05T06:08:33;7.00;;;2.25;;
22363;SDS011;11349;53.412;-1.328;2022-12-05T06:11:04;8.27;;;2.45;;
22363;SDS011;11349;53.412;-1.328;2022-12-05T06:13:36;8.00;;;2.88;;
22363;SDS011;11349;53.412;-1.328;2022-12-05T06:16:06;8.55;;;2.53;;
22363;SDS011;11349;53.412;-1.328;2022-12-05T06:18:33;9.82;;;3.00;;
22363;SDS011;11349;53.412;-1.328;2022-12-05T06:20:59;11.82;;;2.85;;
22363;SDS011;11349;53.412;-1.328;2022-12-05T06:23:25;8.73;;;2.45;;
22363;SDS011;11349;53.412;-1.328;2022-12-05T06:25:53;6.45;;;2.45;;
22363;SDS011;11349;53.412;-1.328;2022-12-05T06:28:22;8.50;;;3.13;;
22363;SDS011;11349;53.412;-1.328;2022-12-05T06:30:49;9.82;;;3.03;;
22363;SDS011;11349;53.412;-1.328;2022-12-05T06:33:16;11.48;;;3.13;;
22363;SDS011;11349;53.412;-1.328;2022-12-05T06:35:42;8.30;;;3.00;;
22363;SDS011;11349;53.412;-1.328;2022-12-05T06:38:08;11.75;;;2.95;;
22363;SDS011;11349;53.412;-1.328;2022-12-05T06:40:38;9.68;;;2.50;;
22363;SDS011;11349;53.412;-1.328;2022-12-05T06:43:05;12.00;;;2.53;;
22363;SDS011;11349;53.412;-1.328;2022-12-05T06:45:31;8.43;;;2.70;;
22363;SDS011;11349;53.412;-1.328;2022-12-05T06:47:56;9.75;;;2.58;;
22363;SDS011;11349;53.412;-1.328;2022-12-05T06:50:22;10.93;;;2.53;;
22363;SDS011;11349;53.412;-1.328;2022-12-05T06:52:48;12.18;;;3.30;;
22363;SDS011;11349;53.412;-1.328;2022-12-05T06:55:15;10.40;;;2.38;;
22363;SDS011;11349;53.412;-1.328;2022-12-05T06:57:40;11.10;;;2.70;;
22363;SDS011;11349;53.412;-1.328;2022-12-05T07:00:06;9.75;;;2.40;;
22363;SDS011;11349;53.412;-1.328;2022-12-05T07:02:51;8.23;;;3.53;;
22363;SDS011;11349;53.412;-1.328;2022-12-05T07:05:18;5.78;;;2.25;;
22363;SDS011;11349;53.412;-1.328;2022-12-05T07:07:43;7.65;;;3.15;;
22363;SDS011;11349;53.412;-1.328;2022-12-05T07:10:10;15.23;;;4.13;;
22363;SDS011;11349;53.412;-1.328;2022-12-05T07:12:35;6.20;;;2.50;;
22363;SDS011;11349;53.412;-1.328;2022-12-05T07:15:01;7.93;;;2.75;;
22363;SDS011;11349;53.412;-1.328;2022-12-05T07:17:27;10.68;;;3.05;;
22363;SDS011;11349;53.412;-1.328;2022-12-05T07:19:53;11.77;;;2.80;;
22363;SDS011;11349;53.412;-1.328;2022-12-05T07:22:20;9.48;;;3.25;;
22363;SDS011;11349;53.412;-1.328;2022-12-05T07:24:46;12.15;;;3.25;;
22363;SDS011;11349;53.412;-1.328;2022-12-05T07:27:13;10.60;;;2.78;;
22363;SDS011;11349;53.412;-1.328;2022-12-05T07:29:39;8.85;;;2.97;;
22363;SDS011;11349;53.412;-1.328;2022-12-05T07:32:05;7.40;;;2.85;;
22363;SDS011;11349;53.412;-1.328;2022-12-05T07:34:32;9.95;;;3.05;;
22363;SDS011;11349;53.412;-1.328;2022-12-05T07:36:58;12.57;;;3.40;;
22363;SDS011;11349;53.412;-1.328;2022-12-05T07:39:24;11.65;;;3.28;;
22363;SDS011;11349;53.412;-1.328;2022-12-05T07:41:50;13.02;;;4.03;;
22363;SDS011;11349;53.412;-1.328;2022-12-05T07:44:16;9.85;;;2.80;;
22363;SDS011;11349;53.412;-1.328;2022-12-05T07:46:42;10.43;;;3.55;;
22363;SDS011;11349;53.412;-1.328;2022-12-05T07:49:07;15.40;;;4.28;;
22363;SDS011;11349;53.412;-1.328;2022-12-05T07:51:33;11.02;;;3.22;;
22363;SDS011;11349;53.412;-1.328;2022-12-05T07:54:00;11.15;;;3.58;;
22363;SDS011;11349;53.412;-1.328;2022-12-05T07:56:26;14.82;;;4.20;;
22363;SDS011;11349;53.412;-1.328;2022-12-05T07:58:52;11.85;;;3.20;;
22363;SDS011;11349;53.412;-1.328;2022-12-05T08:01:22;9.02;;;3.42;;
22363;SDS011;11349;53.412;-1.328;2022-12-05T08:03:51;8.48;;;3.67;;
22363;SDS011;11349;53.412;-1.328;2022-12-05T08:06:19;10.07;;;3.20;;
22363;SDS011;11349;53.412;-1.328;2022-12-05T08:08:49;9.07;;;3.45;;
22363;SDS011;11349;53.412;-1.328;2022-12-05T08:11:19;10.40;;;3.50;;
22363;SDS011;11349;53.412;-1.328;2022-12-05T08:13:47;8.20;;;3.63;;
22363;SDS011;11349;53.412;-1.328;2022-12-05T08:16:15;10.00;;;3.72;;
22363;SDS011;11349;53.412;-1.328;2022-12-05T08:18:43;10.63;;;3.40;;
22363;SDS011;11349;53.412;-1.328;2022-12-05T08:21:10;8.43;;;3.00;;
22363;SDS011;11349;53.412;-1.328;2022-12-05T08:23:38;10.90;;;4.05;;
22363;SDS011;11349;53.412;-1.328;2022-12-05T08:26:05;9.68;;;3.30;;
22363;SDS011;11349;53.412;-1.328;2022-12-05T08:28:34;12.98;;;3.78;;
22363;SDS011;11349;53.412;-1.328;2022-12-05T08:31:07;11.20;;;3.72;;
22363;SDS011;11349;53.412;-1.328;2022-12-05T08:33:35;7.65;;;3.30;;
22363;SDS011;11349;53.412;-1.328;2022-12-05T08:36:02;9.65;;;3.25;;
22363;SDS011;11349;53.412;-1.328;2022-12-05T08:38:29;12.68;;;3.90;;
22363;SDS011;11349;53.412;-1.328;2022-12-05T08:40:55;8.73;;;3.30;;
22363;SDS011;11349;53.412;-1.328;2022-12-05T08:43:21;9.55;;;3.80;;
22363;SDS011;11349;53.412;-1.328;2022-12-05T08:45:50;9.75;;;3.55;;
22363;SDS011;11349;53.412;-1.328;2022-12-05T08:48:16;15.90;;;4.15;;
22363;SDS011;11349;53.412;-1.328;2022-12-05T08:50:42;14.43;;;4.47;;
22363;SDS011;11349;53.412;-1.328;2022-12-05T08:53:08;13.32;;;5.20;;
22363;SDS011;11349;53.412;-1.328;2022-12-05T08:55:34;11.82;;;4.03;;
22363;SDS011;11349;53.412;-1.328;2022-12-05T08:58:00;10.38;;;3.92;;
22363;SDS011;11349;53.412;-1.328;2022-12-05T09:00:26;11.85;;;3.67;;
22363;SDS011;11349;53.412;-1.328;2022-12-05T09:02:52;9.40;;;3.88;;
22363;SDS011;11349;53.412;-1.328;2022-12-05T09:05:18;9.25;;;3.80;;
22363;SDS011;11349;53.412;-1.328;2022-12-05T09:07:44;13.35;;;4.22;;
22363;SDS011;11349;53.412;-1.328;2022-12-05T09:10:10;16.10;;;5.78;;
22363;SDS011;11349;53.412;-1.328;2022-12-05T09:12:36;13.25;;;4.35;;
22363;SDS011;11349;53.412;-1.328;2022-12-05T09:15:04;11.68;;;3.97;;
22363;SDS011;11349;53.412;-1.328;2022-12-05T09:17:31;12.43;;;4.93;;
22363;SDS011;11349;53.412;-1.328;2022-12-05T09:19:57;7.45;;;3.50;;
22363;SDS011;11349;53.412;-1.328;2022-12-05T09:22:22;12.10;;;3.80;;
22363;SDS011;11349;53.412;-1.328;2022-12-05T09:24:48;12.07;;;3.80;;
22363;SDS011;11349;53.412;-1.328;2022-12-05T09:27:14;10.52;;;3.35;;
22363;SDS011;11349;53.412;-1.328;2022-12-05T09:29:40;7.93;;;3.38;;
22363;SDS011;11349;53.412;-1.328;2022-12-05T09:32:07;8.25;;;3.33;;
22363;SDS011;11349;53.412;-1.328;2022-12-05T09:34:33;10.65;;;3.83;;
22363;SDS011;11349;53.412;-1.328;2022-12-05T09:37:00;9.00;;;3.67;;
22363;SDS011;11349;53.412;-1.328;2022-12-05T09:39:26;11.02;;;4.57;;
22363;SDS011;11349;53.412;-1.328;2022-12-05T09:42:38;15.50;;;4.10;;
22363;SDS011;11349;53.412;-1.328;2022-12-05T09:45:04;10.60;;;4.45;;
22363;SDS011;11349;53.412;-1.328;2022-12-05T09:48:00;14.77;;;4.88;;
22363;SDS011;11349;53.412;-1.328;2022-12-05T09:50:39;14.40;;;4.68;;
22363;SDS011;11349;53.412;-1.328;2022-12-05T09:58:15;12.23;;;4.38;;
22363;SDS011;11349;53.412;-1.328;2022-12-05T10:01:07;11.23;;;3.92;;
22363;SDS011;11349;53.412;-1.328;2022-12-05T10:03:52;12.07;;;4.10;;
22363;SDS011;11349;53.412;-1.328;2022-12-05T10:06:35;15.27;;;3.83;;
22363;SDS011;11349;53.412;-1.328;2022-12-05T10:12:10;12.30;;;5.28;;
22363;SDS011;11349;53.412;-1.328;2022-12-05T10:15:28;12.82;;;4.13;;
22363;SDS011;11349;53.412;-1.328;2022-12-05T10:18:13;12.32;;;4.03;;
22363;SDS011;11349;53.412;-1.328;2022-12-05T10:20:59;9.30;;;4.53;;
22363;SDS011;11349;53.412;-1.328;2022-12-05T10:26:08;10.27;;;3.70;;
22363;SDS011;11349;53.412;-1.328;2022-12-05T10:31:31;9.48;;;3.67;;
22363;SDS011;11349;53.412;-1.328;2022-12-05T10:34:05;9.80;;;3.33;;
22363;SDS011;11349;53.412;-1.328;2022-12-05T10:36:35;7.72;;;3.85;;
22363;SDS011;11349;53.412;-1.328;2022-12-05T10:39:01;13.60;;;4.45;;
22363;SDS011;11349;53.412;-1.328;2022-12-05T10:41:27;7.22;;;3.65;;
22363;SDS011;11349;53.412;-1.328;2022-12-05T10:43:53;9.57;;;3.50;;
22363;SDS011;11349;53.412;-1.328;2022-12-05T10:46:20;10.05;;;3.50;;
22363;SDS011;11349;53.412;-1.328;2022-12-05T10:48:46;12.02;;;4.10;;
22363;SDS011;11349;53.412;-1.328;2022-12-05T10:51:14;11.00;;;3.85;;
22363;SDS011;11349;53.412;-1.328;2022-12-05T10:53:46;9.52;;;4.03;;
22363;SDS011;11349;53.412;-1.328;2022-12-05T10:59:16;10.45;;;4.07;;
22363;SDS011;11349;53.412;-1.328;2022-12-05T11:01:50;10.73;;;3.97;;
22363;SDS011;11349;53.412;-1.328;2022-12-05T11:06:50;10.95;;;3.80;;
22363;SDS011;11349;53.412;-1.328;2022-12-05T11:09:34;10.48;;;3.72;;
22363;SDS011;11349;53.412;-1.328;2022-12-05T11:17:23;9.32;;;4.05;;
22363;SDS011;11349;53.412;-1.328;2022-12-05T11:19:51;11.82;;;4.10;;
22363;SDS011;11349;53.412;-1.328;2022-12-05T11:22:17;15.45;;;4.40;;
22363;SDS011;11349;53.412;-1.328;2022-12-05T11:24:43;9.57;;;3.70;;
22363;SDS011;11349;53.412;-1.328;2022-12-05T11:29:41;8.70;;;3.40;;
22363;SDS011;11349;53.412;-1.328;2022-12-05T11:40:20;13.43;;;4.22;;
22363;SDS011;11349;53.412;-1.328;2022-12-05T11:51:39;8.40;;;3.55;;
22363;SDS011;11349;53.412;-1.328;2022-12-05T11:54:28;12.43;;;3.78;;
22363;SDS011;11349;53.412;-1.328;2022-12-05T11:57:27;7.85;;;3.92;;
22363;SDS011;11349;53.412;-1.328;2022-12-05T12:00:17;8.38;;;3.92;;
22363;SDS011;11349;53.412;-1.328;2022-12-05T12:08:36;9.15;;;3.22;;
22363;SDS011;11349;53.412;-1.328;2022-12-05T12:19:51;9.70;;;3.60;;
22363;SDS011;11349;53.412;-1.328;2022-12-05T12:38:53;11.23;;;3.70;;
22363;SDS011;11349;53.412;-1.328;2022-12-05T12:52:23;10.77;;;3.40;;
22363;SDS011;11349;53.412;-1.328;2022-12-05T12:55:01;9.82;;;4.68;;
22363;SDS011;11349;53.412;-1.328;2022-12-05T13:10:46;11.10;;;3.40;;
22363;SDS011;11349;53.412;-1.328;2022-12-05T13:13:23;15.13;;;4.13;;
22363;SDS011;11349;53.412;-1.328;2022-12-05T13:16:00;13.30;;;5.20;;
22363;SDS011;11349;53.412;-1.328;2022-12-05T13:18:30;9.85;;;4.53;;
22363;SDS011;11349;53.412;-1.328;2022-12-05T13:20:56;14.38;;;4.45;;
22363;SDS011;11349;53.412;-1.328;2022-12-05T13:23:26;8.15;;;4.00;;
22363;SDS011;11349;53.412;-1.328;2022-12-05T13:25:55;11.40;;;4.60;;
22363;SDS011;11349;53.412;-1.328;2022-12-05T13:28:30;11.73;;;4.40;;
22363;SDS011;11349;53.412;-1.328;2022-12-05T13:30:58;7.95;;;3.95;;
22363;SDS011;11349;53.412;-1.328;2022-12-05T13:33:33;11.82;;;4.82;;
22363;SDS011;11349;53.412;-1.328;2022-12-05T13:36:10;14.80;;;5.00;;
22363;SDS011;11349;53.412;-1.328;2022-12-05T13:38:57;14.95;;;5.60;;
22363;SDS011;11349;53.412;-1.328;2022-12-05T13:42:00;13.15;;;5.57;;
22363;SDS011;11349;53.412;-1.328;2022-12-05T13:44:46;13.45;;;4.47;;
22363;SDS011;11349;53.412;-1.328;2022-12-05T13:47:25;10.00;;;4.68;;
22363;SDS011;11349;53.412;-1.328;2022-12-05T13:49:59;9.65;;;5.07;;
22363;SDS011;11349;53.412;-1.328;2022-12-05T13:52:41;9.52;;;4.32;;
22363;SDS011;11349;53.412;-1.328;2022-12-05T13:57:50;6.90;;;3.45;;
22363;SDS011;11349;53.412;-1.328;2022-12-05T14:00:27;11.02;;;4.43;;
22363;SDS011;11349;53.412;-1.328;2022-12-05T14:03:06;9.10;;;3.78;;
22363;SDS011;11349;53.412;-1.328;2022-12-05T14:05:48;10.98;;;4.18;;
22363;SDS011;11349;53.412;-1.328;2022-12-05T14:15:51;34.33;;;19.73;;
22363;SDS011;11349;53.412;-1.328;2022-12-05T14:24:01;25.98;;;14.52;;
22363;SDS011;11349;53.412;-1.328;2022-12-05T14:29:35;18.20;;;9.63;;
22363;SDS011;11349;53.412;-1.328;2022-12-05T14:35:26;14.45;;;8.50;;
22363;SDS011;11349;53.412;-1.328;2022-12-05T14:38:04;15.88;;;10.02;;
22363;SDS011;11349;53.412;-1.328;2022-12-05T14:40:35;15.20;;;7.72;;
22363;SDS011;11349;53.412;-1.328;2022-12-05T14:43:04;17.67;;;11.77;;
22363;SDS011;11349;53.412;-1.328;2022-12-05T14:50:54;15.45;;;5.60;;
22363;SDS011;11349;53.412;-1.328;2022-12-05T15:01:30;11.05;;;4.50;;
22363;SDS011;11349;53.412;-1.328;2022-12-05T15:07:09;14.20;;;5.20;;
22363;SDS011;11349;53.412;-1.328;2022-12-05T15:12:10;8.27;;;4.00;;
22363;SDS011;11349;53.412;-1.328;2022-12-05T15:14:49;10.65;;;3.83;;
22363;SDS011;11349;53.412;-1.328;2022-12-05T15:17:29;16.85;;;6.25;;
22363;SDS011;11349;53.412;-1.328;2022-12-05T15:20:32;9.13;;;4.47;;
22363;SDS011;11349;53.412;-1.328;2022-12-05T15:26:56;10.63;;;4.53;;
22363;SDS011;11349;53.412;-1.328;2022-12-05T15:29:10;12.10;;;4.38;;
22363;SDS011;11349;53.412;-1.328;2022-12-05T15:31:38;8.02;;;3.45;;
22363;SDS011;11349;53.412;-1.328;2022-12-05T15:34:12;11.90;;;3.42;;
22363;SDS011;11349;53.412;-1.328;2022-12-05T15:47:37;19.20;;;9.43;;
22363;SDS011;11349;53.412;-1.328;2022-12-05T15:50:04;23.23;;;13.27;;
22363;SDS011;11349;53.412;-1.328;2022-12-05T15:55:05;35.10;;;20.77;;
22363;SDS011;11349;53.412;-1.328;2022-12-05T15:57:45;39.55;;;22.33;;
22363;SDS011;11349;53.412;-1.328;2022-12-05T16:00:15;39.30;;;24.42;;
22363;SDS011;11349;53.412;-1.328;2022-12-05T16:02:44;33.65;;;19.52;;
22363;SDS011;11349;53.412;-1.328;2022-12-05T16:05:45;29.95;;;16.02;;
22363;SDS011;11349;53.412;-1.328;2022-12-05T16:08:28;23.40;;;13.63;;
22363;SDS011;11349;53.412;-1.328;2022-12-05T16:11:09;20.60;;;12.43;;
22363;SDS011;11349;53.412;-1.328;2022-12-05T16:13:36;23.95;;;12.40;;
22363;SDS011;11349;53.412;-1.328;2022-12-05T16:16:06;22.63;;;14.98;;
22363;SDS011;11349;53.412;-1.328;2022-12-05T16:18:36;26.58;;;17.23;;
22363;SDS011;11349;53.412;-1.328;2022-12-05T16:21:03;26.10;;;15.70;;
22363;SDS011;11349;53.412;-1.328;2022-12-05T16:23:59;28.98;;;17.23;;
22363;SDS011;11349;53.412;-1.328;2022-12-05T16:26:26;25.13;;;17.45;;
22363;SDS011;11349;53.412;-1.328;2022-12-05T16:28:58;30.35;;;22.23;;
22363;SDS011;11349;53.412;-1.328;2022-12-05T16:31:25;29.77;;;23.90;;
22363;SDS011;11349;53.412;-1.328;2022-12-05T16:34:05;37.92;;;25.25;;
22363;SDS011;11349;53.412;-1.328;2022-12-05T16:36:35;36.08;;;27.60;;
22363;SDS011;11349;53.412;-1.328;2022-12-05T16:39:11;39.58;;;28.92;;
22363;SDS011;11349;53.412;-1.328;2022-12-05T16:41:39;29.85;;;25.92;;
22363;SDS011;11349;53.412;-1.328;2022-12-05T16:44:26;43.90;;;30.00;;
22363;SDS011;11349;53.412;-1.328;2022-12-05T16:46:50;43.90;;;28.40;;
22363;SDS011;11349;53.412;-1.328;2022-12-05T16:54:23;20.08;;;13.95;;
22363;SDS011;11349;53.412;-1.328;2022-12-05T16:56:49;13.23;;;7.68;;
22363;SDS011;11349;53.412;-1.328;2022-12-05T16:59:26;12.25;;;7.72;;
22363;SDS011;11349;53.412;-1.328;2022-12-05T17:01:56;13.50;;;7.00;;
22363;SDS011;11349;53.412;-1.328;2022-12-05T17:04:22;11.38;;;5.95;;
22363;SDS011;11349;53.412;-1.328;2022-12-05T17:06:48;13.30;;;5.70;;
22363;SDS011;11349;53.412;-1.328;2022-12-05T17:09:14;12.57;;;4.88;;
22363;SDS011;11349;53.412;-1.328;2022-12-05T17:11:40;10.07;;;4.53;;
22363;SDS011;11349;53.412;-1.328;2022-12-05T17:14:12;7.80;;;4.13;;
22363;SDS011;11349;53.412;-1.328;2022-12-05T17:16:39;9.57;;;4.43;;
22363;SDS011;11349;53.412;-1.328;2022-12-05T17:19:06;10.63;;;3.90;;
22363;SDS011;11349;53.412;-1.328;2022-12-05T17:21:33;9.88;;;4.15;;
22363;SDS011;11349;53.412;-1.328;2022-12-05T17:23:59;10.23;;;5.30;;
22363;SDS011;11349;53.412;-1.328;2022-12-05T17:26:25;15.10;;;8.70;;
22363;SDS011;11349;53.412;-1.328;2022-12-05T17:28:51;15.98;;;8.85;;
22363;SDS011;11349;53.412;-1.328;2022-12-05T17:31:17;16.50;;;8.73;;
22363;SDS011;11349;53.412;-1.328;2022-12-05T17:33:45;20.27;;;10.50;;
22363;SDS011;11349;53.412;-1.328;2022-12-05T17:36:12;10.45;;;6.68;;
22363;SDS011;11349;53.412;-1.328;2022-12-05T17:38:39;13.45;;;6.32;;
22363;SDS011;11349;53.412;-1.328;2022-12-05T17:41:04;8.13;;;3.88;;
22363;SDS011;11349;53.412;-1.328;2022-12-05T17:43:30;12.27;;;4.63;;
22363;SDS011;11349;53.412;-1.328;2022-12-05T17:45:59;8.68;;;3.80;;
22363;SDS011;11349;53.412;-1.328;2022-12-05T17:48:26;5.82;;;2.85;;
22363;SDS011;11349;53.412;-1.328;2022-12-05T17:50:51;6.80;;;3.15;;
22363;SDS011;11349;53.412;-1.328;2022-12-05T17:53:18;8.80;;;3.13;;
22363;SDS011;11349;53.412;-1.328;2022-12-05T17:55:45;8.73;;;3.00;;
22363;SDS011;11349;53.412;-1.328;2022-12-05T17:58:12;8.98;;;3.33;;
22363;SDS011;11349;53.412;-1.328;2022-12-05T18:00:40;8.88;;;2.92;;
22363;SDS011;11349;53.412;-1.328;2022-12-05T18:03:09;7.22;;;3.03;;
22363;SDS011;11349;53.412;-1.328;2022-12-05T18:05:38;7.75;;;2.90;;
22363;SDS011;11349;53.412;-1.328;2022-12-05T18:08:04;7.43;;;2.70;;
22363;SDS011;11349;53.412;-1.328;2022-12-05T18:10:30;7.03;;;2.35;;
22363;SDS011;11349;53.412;-1.328;2022-12-05T18:12:56;7.97;;;2.63;;
22363;SDS011;11349;53.412;-1.328;2022-12-05T18:15:22;7.55;;;2.95;;
22363;SDS011;11349;53.412;-1.328;2022-12-05T18:17:47;6.57;;;3.35;;
22363;SDS011;11349;53.412;-1.328;2022-12-05T18:20:13;6.65;;;3.15;;